地図

経路データ

SID SEASON NUMBER BASIN SUBBASIN NAME ISO_TIME NATURE LAT LON WMO_WIND WMO_PRES WMO_AGENCY TRACK_TYPE DIST2LAND LANDFALL IFLAG USA_AGENCY USA_ATCF_ID USA_LAT USA_LON USA_RECORD USA_STATUS USA_WIND USA_PRES USA_SSHS USA_R34_NE USA_R34_SE USA_R34_SW USA_R34_NW USA_R50_NE USA_R50_SE USA_R50_SW USA_R50_NW USA_R64_NE USA_R64_SE USA_R64_SW USA_R64_NW USA_POCI USA_ROCI USA_RMW USA_EYE TOKYO_LAT TOKYO_LON TOKYO_GRADE TOKYO_WIND TOKYO_PRES TOKYO_R50_DIR TOKYO_R50_LONG TOKYO_R50_SHORT TOKYO_R30_DIR TOKYO_R30_LONG TOKYO_R30_SHORT TOKYO_LAND CMA_LAT CMA_LON CMA_CAT CMA_WIND CMA_PRES HKO_LAT HKO_LON HKO_CAT HKO_WIND HKO_PRES NEWDELHI_LAT NEWDELHI_LON NEWDELHI_GRADE NEWDELHI_WIND NEWDELHI_PRES NEWDELHI_CI NEWDELHI_DP NEWDELHI_POCI REUNION_LAT REUNION_LON REUNION_TYPE REUNION_WIND REUNION_PRES REUNION_TNUM REUNION_CI REUNION_RMW REUNION_R34_NE REUNION_R34_SE REUNION_R34_SW REUNION_R34_NW REUNION_R50_NE REUNION_R50_SE REUNION_R50_SW REUNION_R50_NW REUNION_R64_NE REUNION_R64_SE REUNION_R64_SW REUNION_R64_NW BOM_LAT BOM_LON BOM_TYPE BOM_WIND BOM_PRES BOM_TNUM BOM_CI BOM_RMW BOM_R34_NE BOM_R34_SE BOM_R34_SW BOM_R34_NW BOM_R50_NE BOM_R50_SE BOM_R50_SW BOM_R50_NW BOM_R64_NE BOM_R64_SE BOM_R64_SW BOM_R64_NW BOM_ROCI BOM_POCI BOM_EYE BOM_POS_METHOD BOM_PRES_METHOD NADI_LAT NADI_LON NADI_CAT NADI_WIND NADI_PRES WELLINGTON_LAT WELLINGTON_LON WELLINGTON_WIND WELLINGTON_PRES DS824_LAT DS824_LON DS824_STAGE DS824_WIND DS824_PRES TD9636_LAT TD9636_LON TD9636_STAGE TD9636_WIND TD9636_PRES TD9635_LAT TD9635_LON TD9635_WIND TD9635_PRES TD9635_ROCI NEUMANN_LAT NEUMANN_LON NEUMANN_CLASS NEUMANN_WIND NEUMANN_PRES MLC_LAT MLC_LON MLC_CLASS MLC_WIND MLC_PRES USA_GUST BOM_GUST BOM_GUST_PER REUNION_GUST REUNION_GUST_PER USA_SEAHGT USA_SEARAD_NE USA_SEARAD_SE USA_SEARAD_SW USA_SEARAD_NW STORM_SPEED STORM_DIR
1944303N12132 1944 76 WP MM NOT_NAMED 1944-10-28 12:00:00 NR 12.1000 132.000 main 687 625 __________O___ -1 12.1000 132.000 2 13 279
1944303N12132 1944 76 WP MM NOT_NAMED 1944-10-28 15:00:00 NR 12.2011 131.338 main 614 553 __________P___ -1 12.2011 131.338 2 13 279
1944303N12132 1944 76 WP MM NOT_NAMED 1944-10-28 18:00:00 NR 12.3011 130.670 main 553 483 __________P___ -1 12.3011 130.670 2 13 279
1944303N12132 1944 76 WP MM NOT_NAMED 1944-10-28 21:00:00 NR 12.4006 129.993 main 483 414 __________P___ -1 12.4006 129.993 2 14 278
1944303N12132 1944 76 WP MM NOT_NAMED 1944-10-29 00:00:00 NR 12.5000 129.300 main 414 339 __________O___ -1 12.5000 129.300 2 14 278
1944303N12132 1944 76 WP MM NOT_NAMED 1944-10-29 03:00:00 NR 12.5996 128.589 main 339 266 __________P___ -1 12.5996 128.589 2 14 278
1944303N12132 1944 76 WP MM NOT_NAMED 1944-10-29 06:00:00 NR 12.6995 127.865 main 266 196 __________P___ -1 12.6995 127.865 2 14 278
1944303N12132 1944 76 WP MM NOT_NAMED 1944-10-29 09:00:00 NR 12.7996 127.133 main 186 125 __________P___ -1 12.7996 127.133 2 14 278
1944303N12132 1944 76 WP MM NOT_NAMED 1944-10-29 12:00:00 NR 12.9000 126.400 main 125 77 __________O___ -1 12.9000 126.400 2 14 278
1944303N12132 1944 76 WP MM NOT_NAMED 1944-10-29 15:00:00 NR 12.9953 125.675 main 77 57 __________P___ -1 12.9953 125.675 2 14 278
1944303N12132 1944 76 WP MM NOT_NAMED 1944-10-29 18:00:00 NR 13.0917 124.950 main 67 31 __________P___ -1 13.0917 124.950 2 14 278
1944303N12132 1944 76 WP MM NOT_NAMED 1944-10-29 21:00:00 NR 13.1922 124.225 main 24 0 __________P___ -1 13.1922 124.225 2 14 278
1944303N12132 1944 76 WP MM NOT_NAMED 1944-10-30 00:00:00 NR 13.3000 123.500 main 0 0 __________O___ -1 13.3000 123.500 2 14 279
1944303N12132 1944 76 WP MM NOT_NAMED 1944-10-30 03:00:00 NR 13.4050 122.775 main 10 0 __________P___ -1 13.4050 122.775 2 14 279
1944303N12132 1944 76 WP MM NOT_NAMED 1944-10-30 06:00:00 NR 13.5192 122.049 main 31 10 __________P___ -1 13.5192 122.049 2 14 280
1944303N12132 1944 76 WP MM NOT_NAMED 1944-10-30 09:00:00 NR 13.6488 121.324 main 0 0 __________P___ -1 13.6488 121.324 2 14 281
1944303N12132 1944 76 WP MM NOT_NAMED 1944-10-30 12:00:00 NR 13.8000 120.600 main 0 0 __________O___ -1 13.8000 120.600 2 15 283
1944303N12132 1944 76 WP MM NOT_NAMED 1944-10-30 15:00:00 NR 13.9829 119.819 main 85 85 __________P___ -1 13.9829 119.819 2 16 284
1944303N12132 1944 76 WP MM NOT_NAMED 1944-10-30 18:00:00 NR 14.1857 119.046 main 136 136 __________P___ -1 14.1857 119.046 2 15 286
1944303N12132 1944 76 WP MM NOT_NAMED 1944-10-30 21:00:00 NR 14.3956 118.325 main 198 198 __________P___ -1 14.3956 118.325 2 14 288
1944303N12132 1944 76 WP MM NOT_NAMED 1944-10-31 00:00:00 NR 14.6000 117.700 main 252 252 __________O___ -1 14.6000 117.700 2 11 289
1944303N12132 1944 76 WP MM NOT_NAMED 1944-10-31 03:00:00 NR 14.7645 117.232 main 297 297 __________P___ -1 14.7645 117.232 2 9 292
1944303N12132 1944 76 WP MM NOT_NAMED 1944-10-31 06:00:00 NR 14.9257 116.859 main 324 324 __________P___ -1 14.9257 116.859 2 8 296
1944303N12132 1944 76 WP MM NOT_NAMED 1944-10-31 09:00:00 NR 15.0992 116.532 main 357 357 __________P___ -1 15.0992 116.532 2 7 301
1944303N12132 1944 76 WP MM NOT_NAMED 1944-10-31 12:00:00 NR 15.3000 116.200 main 382 382 __________O___ -1 15.3000 116.200 2 9 302
1944303N12132 1944 76 WP MM NOT_NAMED 1944-10-31 15:00:00 NR 15.5708 115.762 main 419 419 __________P___ -1 15.5708 115.762 2 10 304
1944303N12132 1944 76 WP MM NOT_NAMED 1944-10-31 18:00:00 NR 15.8654 115.313 main 470 470 __________P___ -1 15.8654 115.313 2 10 305
1944303N12132 1944 76 WP MM NOT_NAMED 1944-10-31 21:00:00 NR 16.1521 114.883 main 513 501 __________P___ -1 16.1521 114.883 2 9 304
1944303N12132 1944 76 WP MM NOT_NAMED 1944-11-01 00:00:00 NR 16.4000 114.500 main 501 462 __________O___ -1 16.4000 114.500 2 8 303
1944303N12132 1944 76 WP MM NOT_NAMED 1944-11-01 03:00:00 NR 16.5717 114.199 main 462 438 __________P___ -1 16.5717 114.199 2 6 300
1944303N12132 1944 76 WP MM NOT_NAMED 1944-11-01 06:00:00 NR 16.7019 113.947 main 429 406 __________P___ -1 16.7019 113.947 2 5 297
1944303N12132 1944 76 WP MM NOT_NAMED 1944-11-01 09:00:00 NR 16.8062 113.721 main 406 382 __________P___ -1 16.8062 113.721 2 5 295
1944303N12132 1944 76 WP MM NOT_NAMED 1944-11-01 12:00:00 NR 16.9000 113.500 main 382 358 __________O___ -1 16.9000 113.500 2 5 295
1944303N12132 1944 76 WP MM NOT_NAMED 1944-11-01 15:00:00 NR 17.0111 113.258 main 358 325 __________P___ -1 17.0111 113.258 2 5 295
1944303N12132 1944 76 WP MM NOT_NAMED 1944-11-01 18:00:00 NR 17.1148 113.015 main 325 302 __________P___ -1 17.1148 113.015 2 5 293
1944303N12132 1944 76 WP MM NOT_NAMED 1944-11-01 21:00:00 NR 17.2111 112.764 main 302 269 __________P___ -1 17.2111 112.764 2 5 291
1944303N12132 1944 76 WP MM NOT_NAMED 1944-11-02 00:00:00 NR 17.3000 112.500 main 269 238 __________O___ -1 17.3000 112.500 2 6 289
1944303N12132 1944 76 WP MM NOT_NAMED 1944-11-02 03:00:00 NR 17.3862 112.218 main 238 207 __________P___ -1 17.3862 112.218 2 6 287
1944303N12132 1944 76 WP MM NOT_NAMED 1944-11-02 06:00:00 NR 17.4649 111.922 main 207 184 __________P___ -1 17.4649 111.922 2 6 285
1944303N12132 1944 76 WP MM NOT_NAMED 1944-11-02 09:00:00 NR 17.5361 111.615 main 184 155 __________P___ -1 17.5361 111.615 2 6 283
1944303N12132 1944 76 WP MM NOT_NAMED 1944-11-02 12:00:00 NR 17.6000 111.300 main 155 128 __________O___ -1 17.6000 111.300 2 6 281
1944303N12132 1944 76 WP MM NOT_NAMED 1944-11-02 15:00:00 NR 17.6568 110.979 main 128 107 __________P___ -1 17.6568 110.979 2 6 280
1944303N12132 1944 76 WP MM NOT_NAMED 1944-11-02 18:00:00 NR 17.7079 110.655 main 107 74 __________P___ -1 17.7079 110.655 2 6 279
1944303N12132 1944 76 WP MM NOT_NAMED 1944-11-02 21:00:00 NR 17.7551 110.328 main 74 54 __________P___ -1 17.7551 110.328 2 6 278
1944303N12132 1944 76 WP MM NOT_NAMED 1944-11-03 00:00:00 NR 17.8000 110.000 main 54 __________O___ -1 17.8000 110.000 7 6 278

デジタル台風データ・検索

IBTrACS Databaseについて

本データベースは、米国NOAAが公開する1842年以降の世界の熱帯低気圧のベストトラックデータアーカイブInternational Best Track Archive for Climate Stewardship (IBTrACS)を、ウェブで閲覧しやすい形式に変換したものです。

最終更新日:2021-10-21